sensor_id;sensor_type;location;lat;lon;timestamp;P1;durP1;ratioP1;P2;durP2;ratioP2
30677;SDS011;17437;47.188;8.896;2023-05-16T00:01:12;5.03;;;4.50;;
30677;SDS011;17437;47.188;8.896;2023-05-16T00:03:44;4.83;;;3.98;;
30677;SDS011;17437;47.188;8.896;2023-05-16T00:06:16;6.35;;;5.25;;
30677;SDS011;17437;47.188;8.896;2023-05-16T00:08:48;5.10;;;3.72;;
30677;SDS011;17437;47.188;8.896;2023-05-16T00:11:19;4.95;;;4.03;;
30677;SDS011;17437;47.188;8.896;2023-05-16T00:13:51;4.78;;;3.95;;
30677;SDS011;17437;47.188;8.896;2023-05-16T00:16:22;5.15;;;4.30;;
30677;SDS011;17437;47.188;8.896;2023-05-16T00:18:56;10.00;;;4.40;;
30677;SDS011;17437;47.188;8.896;2023-05-16T00:21:29;5.17;;;4.50;;
30677;SDS011;17437;47.188;8.896;2023-05-16T00:24:00;6.03;;;4.47;;
30677;SDS011;17437;47.188;8.896;2023-05-16T00:29:24;4.93;;;4.33;;
30677;SDS011;17437;47.188;8.896;2023-05-16T00:31:55;4.65;;;4.12;;
30677;SDS011;17437;47.188;8.896;2023-05-16T00:34:27;5.10;;;4.42;;
30677;SDS011;17437;47.188;8.896;2023-05-16T00:36:59;4.62;;;4.22;;
30677;SDS011;17437;47.188;8.896;2023-05-16T00:39:31;5.30;;;4.42;;
30677;SDS011;17437;47.188;8.896;2023-05-16T00:42:02;7.95;;;4.50;;
30677;SDS011;17437;47.188;8.896;2023-05-16T00:44:34;5.08;;;4.58;;
30677;SDS011;17437;47.188;8.896;2023-05-16T00:47:07;6.40;;;4.05;;
30677;SDS011;17437;47.188;8.896;2023-05-16T00:49:38;4.33;;;3.87;;
30677;SDS011;17437;47.188;8.896;2023-05-16T00:52:10;5.17;;;3.87;;
30677;SDS011;17437;47.188;8.896;2023-05-16T00:54:42;8.20;;;4.42;;
30677;SDS011;17437;47.188;8.896;2023-05-16T00:57:13;6.87;;;3.50;;
30677;SDS011;17437;47.188;8.896;2023-05-16T00:59:46;3.92;;;3.52;;
30677;SDS011;17437;47.188;8.896;2023-05-16T01:02:18;4.35;;;3.77;;
30677;SDS011;17437;47.188;8.896;2023-05-16T01:04:49;6.60;;;4.50;;
30677;SDS011;17437;47.188;8.896;2023-05-16T01:07:21;6.60;;;5.78;;
30677;SDS011;17437;47.188;8.896;2023-05-16T01:09:53;5.95;;;4.83;;
30677;SDS011;17437;47.188;8.896;2023-05-16T01:12:27;4.40;;;3.83;;
30677;SDS011;17437;47.188;8.896;2023-05-16T01:15:03;5.60;;;4.45;;
30677;SDS011;17437;47.188;8.896;2023-05-16T01:17:52;4.72;;;3.45;;
30677;SDS011;17437;47.188;8.896;2023-05-16T01:20:17;4.50;;;3.65;;
30677;SDS011;17437;47.188;8.896;2023-05-16T01:22:56;4.78;;;4.03;;
30677;SDS011;17437;47.188;8.896;2023-05-16T01:25:44;9.18;;;3.92;;
30677;SDS011;17437;47.188;8.896;2023-05-16T01:28:17;3.85;;;3.40;;
30677;SDS011;17437;47.188;8.896;2023-05-16T01:30:49;5.92;;;4.85;;
30677;SDS011;17437;47.188;8.896;2023-05-16T01:33:21;4.05;;;3.65;;
30677;SDS011;17437;47.188;8.896;2023-05-16T01:35:54;4.03;;;3.62;;
30677;SDS011;17437;47.188;8.896;2023-05-16T01:38:29;4.75;;;4.08;;
30677;SDS011;17437;47.188;8.896;2023-05-16T01:41:07;4.33;;;3.60;;
30677;SDS011;17437;47.188;8.896;2023-05-16T01:43:41;5.05;;;3.80;;
30677;SDS011;17437;47.188;8.896;2023-05-16T01:46:15;4.50;;;3.72;;
30677;SDS011;17437;47.188;8.896;2023-05-16T01:48:51;3.95;;;3.17;;
30677;SDS011;17437;47.188;8.896;2023-05-16T01:51:26;5.33;;;3.37;;
30677;SDS011;17437;47.188;8.896;2023-05-16T01:54:01;4.85;;;3.52;;
30677;SDS011;17437;47.188;8.896;2023-05-16T01:56:34;7.97;;;4.12;;
30677;SDS011;17437;47.188;8.896;2023-05-16T01:59:07;3.58;;;3.27;;
30677;SDS011;17437;47.188;8.896;2023-05-16T02:01:41;5.83;;;3.50;;
30677;SDS011;17437;47.188;8.896;2023-05-16T02:04:13;3.95;;;3.17;;
30677;SDS011;17437;47.188;8.896;2023-05-16T02:06:46;5.30;;;4.33;;
30677;SDS011;17437;47.188;8.896;2023-05-16T02:09:17;4.35;;;3.83;;
30677;SDS011;17437;47.188;8.896;2023-05-16T02:11:49;5.58;;;3.25;;
30677;SDS011;17437;47.188;8.896;2023-05-16T02:14:20;4.92;;;3.08;;
30677;SDS011;17437;47.188;8.896;2023-05-16T02:16:54;5.45;;;2.67;;
30677;SDS011;17437;47.188;8.896;2023-05-16T02:19:25;3.70;;;2.95;;
30677;SDS011;17437;47.188;8.896;2023-05-16T02:21:57;4.00;;;3.42;;
30677;SDS011;17437;47.188;8.896;2023-05-16T02:24:28;3.40;;;3.10;;
30677;SDS011;17437;47.188;8.896;2023-05-16T02:27:00;4.33;;;3.37;;
30677;SDS011;17437;47.188;8.896;2023-05-16T02:29:31;3.95;;;3.12;;
30677;SDS011;17437;47.188;8.896;2023-05-16T02:32:03;5.33;;;4.15;;
30677;SDS011;17437;47.188;8.896;2023-05-16T02:34:35;3.27;;;2.98;;
30677;SDS011;17437;47.188;8.896;2023-05-16T02:37:06;4.65;;;3.62;;
30677;SDS011;17437;47.188;8.896;2023-05-16T02:39:39;4.45;;;4.03;;
30677;SDS011;17437;47.188;8.896;2023-05-16T02:42:11;5.78;;;3.72;;
30677;SDS011;17437;47.188;8.896;2023-05-16T02:44:43;4.05;;;3.60;;
30677;SDS011;17437;47.188;8.896;2023-05-16T02:47:15;4.92;;;4.17;;
30677;SDS011;17437;47.188;8.896;2023-05-16T02:49:46;7.53;;;4.78;;
30677;SDS011;17437;47.188;8.896;2023-05-16T02:52:19;5.35;;;4.65;;
30677;SDS011;17437;47.188;8.896;2023-05-16T02:54:51;6.22;;;5.00;;
30677;SDS011;17437;47.188;8.896;2023-05-16T02:57:24;5.65;;;4.90;;
30677;SDS011;17437;47.188;8.896;2023-05-16T02:59:56;5.53;;;4.47;;
30677;SDS011;17437;47.188;8.896;2023-05-16T03:02:27;7.95;;;4.50;;
30677;SDS011;17437;47.188;8.896;2023-05-16T03:04:59;7.40;;;6.15;;
30677;SDS011;17437;47.188;8.896;2023-05-16T03:07:31;7.90;;;4.78;;
30677;SDS011;17437;47.188;8.896;2023-05-16T03:10:02;5.33;;;4.75;;
30677;SDS011;17437;47.188;8.896;2023-05-16T03:12:36;9.90;;;4.40;;
30677;SDS011;17437;47.188;8.896;2023-05-16T03:15:09;5.58;;;5.05;;
30677;SDS011;17437;47.188;8.896;2023-05-16T03:17:40;6.15;;;4.85;;
30677;SDS011;17437;47.188;8.896;2023-05-16T03:20:12;7.53;;;6.10;;
30677;SDS011;17437;47.188;8.896;2023-05-16T03:22:43;6.55;;;5.65;;
30677;SDS011;17437;47.188;8.896;2023-05-16T03:25:15;5.90;;;5.15;;
30677;SDS011;17437;47.188;8.896;2023-05-16T03:27:46;5.92;;;4.85;;
30677;SDS011;17437;47.188;8.896;2023-05-16T03:30:19;5.78;;;4.92;;
30677;SDS011;17437;47.188;8.896;2023-05-16T03:32:51;7.28;;;5.60;;
30677;SDS011;17437;47.188;8.896;2023-05-16T03:35:23;9.30;;;4.83;;
30677;SDS011;17437;47.188;8.896;2023-05-16T03:37:55;8.73;;;5.75;;
30677;SDS011;17437;47.188;8.896;2023-05-16T03:40:26;6.80;;;5.12;;
30677;SDS011;17437;47.188;8.896;2023-05-16T03:42:58;12.33;;;7.35;;
30677;SDS011;17437;47.188;8.896;2023-05-16T03:45:29;8.15;;;6.15;;
30677;SDS011;17437;47.188;8.896;2023-05-16T03:48:01;8.45;;;6.87;;
30677;SDS011;17437;47.188;8.896;2023-05-16T03:50:33;8.18;;;6.85;;
30677;SDS011;17437;47.188;8.896;2023-05-16T03:53:07;7.30;;;6.22;;
30677;SDS011;17437;47.188;8.896;2023-05-16T03:55:38;9.03;;;7.42;;
30677;SDS011;17437;47.188;8.896;2023-05-16T03:58:10;7.65;;;6.50;;
30677;SDS011;17437;47.188;8.896;2023-05-16T04:00:41;9.73;;;7.22;;
30677;SDS011;17437;47.188;8.896;2023-05-16T04:03:16;8.30;;;6.85;;
30677;SDS011;17437;47.188;8.896;2023-05-16T04:05:47;7.40;;;5.65;;
30677;SDS011;17437;47.188;8.896;2023-05-16T04:08:19;7.08;;;6.20;;
30677;SDS011;17437;47.188;8.896;2023-05-16T04:10:50;10.08;;;6.87;;
30677;SDS011;17437;47.188;8.896;2023-05-16T04:13:22;8.25;;;6.80;;
30677;SDS011;17437;47.188;8.896;2023-05-16T04:15:54;6.83;;;5.35;;
30677;SDS011;17437;47.188;8.896;2023-05-16T04:18:25;6.87;;;5.37;;
30677;SDS011;17437;47.188;8.896;2023-05-16T04:20:57;10.45;;;7.00;;
30677;SDS011;17437;47.188;8.896;2023-05-16T04:23:28;8.35;;;7.22;;
30677;SDS011;17437;47.188;8.896;2023-05-16T04:26:00;11.08;;;6.72;;
30677;SDS011;17437;47.188;8.896;2023-05-16T04:28:32;14.40;;;7.92;;
30677;SDS011;17437;47.188;8.896;2023-05-16T04:31:04;10.85;;;8.70;;
30677;SDS011;17437;47.188;8.896;2023-05-16T04:33:36;12.13;;;9.40;;
30677;SDS011;17437;47.188;8.896;2023-05-16T04:36:08;8.80;;;7.37;;
30677;SDS011;17437;47.188;8.896;2023-05-16T04:38:40;12.53;;;8.75;;
30677;SDS011;17437;47.188;8.896;2023-05-16T04:41:12;8.20;;;7.22;;
30677;SDS011;17437;47.188;8.896;2023-05-16T04:43:44;12.58;;;8.50;;
30677;SDS011;17437;47.188;8.896;2023-05-16T04:46:16;11.97;;;8.75;;
30677;SDS011;17437;47.188;8.896;2023-05-16T04:48:49;10.55;;;8.20;;
30677;SDS011;17437;47.188;8.896;2023-05-16T04:51:20;11.35;;;8.55;;
30677;SDS011;17437;47.188;8.896;2023-05-16T04:53:52;8.43;;;6.67;;
30677;SDS011;17437;47.188;8.896;2023-05-16T04:56:23;8.75;;;6.62;;
30677;SDS011;17437;47.188;8.896;2023-05-16T04:58:55;8.25;;;7.08;;
30677;SDS011;17437;47.188;8.896;2023-05-16T05:01:27;11.25;;;8.58;;
30677;SDS011;17437;47.188;8.896;2023-05-16T05:03:58;10.78;;;7.65;;
30677;SDS011;17437;47.188;8.896;2023-05-16T05:06:30;9.43;;;7.87;;
30677;SDS011;17437;47.188;8.896;2023-05-16T05:09:01;11.80;;;7.62;;
30677;SDS011;17437;47.188;8.896;2023-05-16T05:11:34;8.73;;;7.35;;
30677;SDS011;17437;47.188;8.896;2023-05-16T05:14:06;11.05;;;8.33;;
30677;SDS011;17437;47.188;8.896;2023-05-16T05:16:37;10.05;;;6.70;;
30677;SDS011;17437;47.188;8.896;2023-05-16T05:19:09;9.30;;;7.03;;
30677;SDS011;17437;47.188;8.896;2023-05-16T05:21:40;10.60;;;6.67;;
30677;SDS011;17437;47.188;8.896;2023-05-16T05:24:12;6.78;;;6.03;;
30677;SDS011;17437;47.188;8.896;2023-05-16T05:26:44;9.03;;;6.87;;
30677;SDS011;17437;47.188;8.896;2023-05-16T05:29:15;8.23;;;6.80;;
30677;SDS011;17437;47.188;8.896;2023-05-16T05:31:47;7.83;;;6.53;;
30677;SDS011;17437;47.188;8.896;2023-05-16T05:34:19;13.20;;;8.23;;
30677;SDS011;17437;47.188;8.896;2023-05-16T05:36:50;8.75;;;6.22;;
30677;SDS011;17437;47.188;8.896;2023-05-16T05:39:22;10.53;;;7.55;;
30677;SDS011;17437;47.188;8.896;2023-05-16T05:41:55;8.90;;;7.40;;
30677;SDS011;17437;47.188;8.896;2023-05-16T05:44:27;7.72;;;6.50;;
30677;SDS011;17437;47.188;8.896;2023-05-16T05:46:58;8.28;;;6.97;;
30677;SDS011;17437;47.188;8.896;2023-05-16T05:49:30;8.73;;;7.33;;
30677;SDS011;17437;47.188;8.896;2023-05-16T05:52:04;8.83;;;7.53;;
30677;SDS011;17437;47.188;8.896;2023-05-16T05:54:35;7.12;;;6.25;;
30677;SDS011;17437;47.188;8.896;2023-05-16T05:57:07;9.93;;;7.08;;
30677;SDS011;17437;47.188;8.896;2023-05-16T05:59:38;7.33;;;6.62;;
30677;SDS011;17437;47.188;8.896;2023-05-16T06:02:10;11.80;;;8.70;;
30677;SDS011;17437;47.188;8.896;2023-05-16T06:04:42;10.75;;;8.73;;
30677;SDS011;17437;47.188;8.896;2023-05-16T06:07:14;8.80;;;6.97;;
30677;SDS011;17437;47.188;8.896;2023-05-16T06:09:46;10.45;;;7.33;;
30677;SDS011;17437;47.188;8.896;2023-05-16T06:12:18;8.95;;;7.80;;
30677;SDS011;17437;47.188;8.896;2023-05-16T06:14:49;9.43;;;8.38;;
30677;SDS011;17437;47.188;8.896;2023-05-16T06:17:21;12.35;;;8.25;;
30677;SDS011;17437;47.188;8.896;2023-05-16T06:19:52;10.88;;;7.92;;
30677;SDS011;17437;47.188;8.896;2023-05-16T06:22:24;9.73;;;7.95;;
30677;SDS011;17437;47.188;8.896;2023-05-16T06:24:55;9.78;;;8.20;;
30677;SDS011;17437;47.188;8.896;2023-05-16T06:27:27;8.98;;;7.20;;
30677;SDS011;17437;47.188;8.896;2023-05-16T06:29:58;7.28;;;6.35;;
30677;SDS011;17437;47.188;8.896;2023-05-16T06:32:30;10.63;;;7.60;;
30677;SDS011;17437;47.188;8.896;2023-05-16T06:35:01;9.80;;;8.00;;
30677;SDS011;17437;47.188;8.896;2023-05-16T06:37:33;9.78;;;8.10;;
30677;SDS011;17437;47.188;8.896;2023-05-16T06:40:06;10.63;;;7.67;;
30677;SDS011;17437;47.188;8.896;2023-05-16T06:42:39;10.10;;;6.90;;
30677;SDS011;17437;47.188;8.896;2023-05-16T06:45:11;10.10;;;6.75;;
30677;SDS011;17437;47.188;8.896;2023-05-16T06:47:42;8.73;;;7.47;;
30677;SDS011;17437;47.188;8.896;2023-05-16T06:50:14;8.68;;;6.65;;
30677;SDS011;17437;47.188;8.896;2023-05-16T06:52:46;9.75;;;8.18;;
30677;SDS011;17437;47.188;8.896;2023-05-16T06:55:18;10.88;;;8.70;;
30677;SDS011;17437;47.188;8.896;2023-05-16T06:57:49;12.75;;;9.18;;
30677;SDS011;17437;47.188;8.896;2023-05-16T07:00:21;11.83;;;9.40;;
30677;SDS011;17437;47.188;8.896;2023-05-16T07:02:53;13.68;;;9.98;;
30677;SDS011;17437;47.188;8.896;2023-05-16T07:05:25;12.60;;;10.10;;
30677;SDS011;17437;47.188;8.896;2023-05-16T07:07:57;14.80;;;11.70;;
30677;SDS011;17437;47.188;8.896;2023-05-16T07:10:32;13.95;;;10.72;;
30677;SDS011;17437;47.188;8.896;2023-05-16T07:13:04;17.82;;;12.53;;
30677;SDS011;17437;47.188;8.896;2023-05-16T07:15:36;14.55;;;12.35;;
30677;SDS011;17437;47.188;8.896;2023-05-16T07:18:08;18.37;;;13.45;;
30677;SDS011;17437;47.188;8.896;2023-05-16T07:20:40;17.00;;;13.98;;
30677;SDS011;17437;47.188;8.896;2023-05-16T07:23:11;14.95;;;12.82;;
30677;SDS011;17437;47.188;8.896;2023-05-16T07:25:45;17.45;;;13.10;;
30677;SDS011;17437;47.188;8.896;2023-05-16T07:28:17;18.05;;;12.00;;
30677;SDS011;17437;47.188;8.896;2023-05-16T07:30:50;14.70;;;12.03;;
30677;SDS011;17437;47.188;8.896;2023-05-16T07:33:22;17.55;;;14.05;;
30677;SDS011;17437;47.188;8.896;2023-05-16T07:35:55;18.07;;;14.23;;
30677;SDS011;17437;47.188;8.896;2023-05-16T07:38:28;18.65;;;14.70;;
30677;SDS011;17437;47.188;8.896;2023-05-16T07:41:00;22.25;;;15.20;;
30677;SDS011;17437;47.188;8.896;2023-05-16T07:43:32;19.57;;;13.40;;
30677;SDS011;17437;47.188;8.896;2023-05-16T07:46:05;18.40;;;13.95;;
30677;SDS011;17437;47.188;8.896;2023-05-16T07:48:36;31.35;;;16.82;;
30677;SDS011;17437;47.188;8.896;2023-05-16T07:51:08;34.92;;;26.12;;
30677;SDS011;17437;47.188;8.896;2023-05-16T07:53:39;26.50;;;19.75;;
30677;SDS011;17437;47.188;8.896;2023-05-16T07:56:11;21.42;;;17.00;;
30677;SDS011;17437;47.188;8.896;2023-05-16T08:01:27;16.32;;;12.65;;
30677;SDS011;17437;47.188;8.896;2023-05-16T08:03:58;12.95;;;10.03;;
30677;SDS011;17437;47.188;8.896;2023-05-16T08:06:30;16.05;;;12.40;;
30677;SDS011;17437;47.188;8.896;2023-05-16T08:09:02;13.78;;;10.60;;
30677;SDS011;17437;47.188;8.896;2023-05-16T08:11:34;12.78;;;11.10;;
30677;SDS011;17437;47.188;8.896;2023-05-16T08:14:08;9.40;;;8.20;;
30677;SDS011;17437;47.188;8.896;2023-05-16T08:16:40;13.43;;;9.03;;
30677;SDS011;17437;47.188;8.896;2023-05-16T08:19:11;10.48;;;8.53;;
30677;SDS011;17437;47.188;8.896;2023-05-16T08:21:43;10.38;;;8.15;;
30677;SDS011;17437;47.188;8.896;2023-05-16T08:24:15;13.68;;;8.53;;
30677;SDS011;17437;47.188;8.896;2023-05-16T08:26:46;14.53;;;7.85;;
30677;SDS011;17437;47.188;8.896;2023-05-16T08:29:18;9.13;;;7.85;;
30677;SDS011;17437;47.188;8.896;2023-05-16T08:31:49;9.08;;;7.97;;
30677;SDS011;17437;47.188;8.896;2023-05-16T08:34:21;9.75;;;8.48;;
30677;SDS011;17437;47.188;8.896;2023-05-16T08:36:53;11.00;;;7.67;;
30677;SDS011;17437;47.188;8.896;2023-05-16T08:39:24;9.53;;;8.50;;
30677;SDS011;17437;47.188;8.896;2023-05-16T08:41:58;10.60;;;8.43;;
30677;SDS011;17437;47.188;8.896;2023-05-16T08:44:30;9.78;;;7.78;;
30677;SDS011;17437;47.188;8.896;2023-05-16T08:47:11;8.88;;;7.22;;
30677;SDS011;17437;47.188;8.896;2023-05-16T08:49:41;10.00;;;7.95;;
30677;SDS011;17437;47.188;8.896;2023-05-16T08:52:17;8.70;;;7.60;;
30677;SDS011;17437;47.188;8.896;2023-05-16T08:54:50;12.30;;;9.50;;
30677;SDS011;17437;47.188;8.896;2023-05-16T08:57:24;14.90;;;10.60;;
30677;SDS011;17437;47.188;8.896;2023-05-16T08:59:59;14.78;;;10.03;;
30677;SDS011;17437;47.188;8.896;2023-05-16T09:02:32;17.90;;;12.20;;
30677;SDS011;17437;47.188;8.896;2023-05-16T09:05:05;16.57;;;12.90;;
30677;SDS011;17437;47.188;8.896;2023-05-16T09:07:40;19.27;;;14.50;;
30677;SDS011;17437;47.188;8.896;2023-05-16T09:10:12;17.90;;;15.00;;
30677;SDS011;17437;47.188;8.896;2023-05-16T09:12:44;16.73;;;12.35;;
30677;SDS011;17437;47.188;8.896;2023-05-16T09:15:17;18.98;;;14.35;;
30677;SDS011;17437;47.188;8.896;2023-05-16T09:17:49;19.25;;;13.90;;
30677;SDS011;17437;47.188;8.896;2023-05-16T09:20:21;20.12;;;14.50;;
30677;SDS011;17437;47.188;8.896;2023-05-16T09:22:53;15.93;;;13.43;;
30677;SDS011;17437;47.188;8.896;2023-05-16T09:25:27;19.45;;;16.70;;
30677;SDS011;17437;47.188;8.896;2023-05-16T09:28:00;16.45;;;13.45;;
30677;SDS011;17437;47.188;8.896;2023-05-16T09:30:32;12.18;;;10.15;;
30677;SDS011;17437;47.188;8.896;2023-05-16T09:33:06;12.88;;;11.45;;
30677;SDS011;17437;47.188;8.896;2023-05-16T09:35:38;12.98;;;10.60;;
30677;SDS011;17437;47.188;8.896;2023-05-16T09:38:14;11.22;;;10.03;;
30677;SDS011;17437;47.188;8.896;2023-05-16T09:40:46;11.50;;;9.00;;
30677;SDS011;17437;47.188;8.896;2023-05-16T09:43:22;12.93;;;10.48;;
30677;SDS011;17437;47.188;8.896;2023-05-16T09:45:57;13.78;;;9.75;;
30677;SDS011;17437;47.188;8.896;2023-05-16T09:48:29;15.70;;;11.85;;
30677;SDS011;17437;47.188;8.896;2023-05-16T09:51:04;14.18;;;11.50;;
30677;SDS011;17437;47.188;8.896;2023-05-16T09:53:37;11.68;;;10.43;;
30677;SDS011;17437;47.188;8.896;2023-05-16T09:56:10;12.43;;;10.13;;
30677;SDS011;17437;47.188;8.896;2023-05-16T09:58:46;20.45;;;11.30;;
30677;SDS011;17437;47.188;8.896;2023-05-16T10:01:20;15.18;;;11.10;;
30677;SDS011;17437;47.188;8.896;2023-05-16T10:03:54;15.50;;;12.18;;
30677;SDS011;17437;47.188;8.896;2023-05-16T10:06:26;14.60;;;12.78;;
30677;SDS011;17437;47.188;8.896;2023-05-16T10:08:58;16.77;;;12.53;;
30677;SDS011;17437;47.188;8.896;2023-05-16T10:11:31;14.75;;;12.78;;
30677;SDS011;17437;47.188;8.896;2023-05-16T10:14:02;14.93;;;11.90;;
30677;SDS011;17437;47.188;8.896;2023-05-16T10:16:36;15.60;;;12.50;;
30677;SDS011;17437;47.188;8.896;2023-05-16T10:19:09;14.25;;;11.68;;
30677;SDS011;17437;47.188;8.896;2023-05-16T10:21:44;12.80;;;10.90;;
30677;SDS011;17437;47.188;8.896;2023-05-16T10:24:19;15.53;;;12.05;;
30677;SDS011;17437;47.188;8.896;2023-05-16T10:26:52;15.35;;;12.63;;
30677;SDS011;17437;47.188;8.896;2023-05-16T10:29:24;16.32;;;13.50;;
30677;SDS011;17437;47.188;8.896;2023-05-16T10:31:57;15.23;;;12.05;;
30677;SDS011;17437;47.188;8.896;2023-05-16T10:34:30;16.27;;;13.43;;
30677;SDS011;17437;47.188;8.896;2023-05-16T10:37:03;16.27;;;12.40;;
30677;SDS011;17437;47.188;8.896;2023-05-16T10:39:36;13.78;;;10.82;;
30677;SDS011;17437;47.188;8.896;2023-05-16T10:42:08;15.65;;;12.33;;
30677;SDS011;17437;47.188;8.896;2023-05-16T10:44:43;14.93;;;11.50;;
30677;SDS011;17437;47.188;8.896;2023-05-16T10:47:18;10.88;;;9.68;;
30677;SDS011;17437;47.188;8.896;2023-05-16T10:49:49;11.10;;;9.50;;
30677;SDS011;17437;47.188;8.896;2023-05-16T10:52:21;11.88;;;9.78;;
30677;SDS011;17437;47.188;8.896;2023-05-16T10:54:55;11.25;;;10.05;;
30677;SDS011;17437;47.188;8.896;2023-05-16T10:57:28;11.73;;;10.53;;
30677;SDS011;17437;47.188;8.896;2023-05-16T11:00:02;13.22;;;11.45;;
30677;SDS011;17437;47.188;8.896;2023-05-16T11:02:39;11.78;;;9.15;;
30677;SDS011;17437;47.188;8.896;2023-05-16T11:05:12;10.03;;;8.78;;
30677;SDS011;17437;47.188;8.896;2023-05-16T11:07:48;10.58;;;9.55;;
30677;SDS011;17437;47.188;8.896;2023-05-16T11:10:33;12.45;;;9.98;;
30677;SDS011;17437;47.188;8.896;2023-05-16T11:13:06;11.85;;;10.55;;
30677;SDS011;17437;47.188;8.896;2023-05-16T11:15:39;12.25;;;10.30;;
30677;SDS011;17437;47.188;8.896;2023-05-16T11:18:13;10.93;;;9.78;;
30677;SDS011;17437;47.188;8.896;2023-05-16T11:20:47;11.28;;;8.68;;
30677;SDS011;17437;47.188;8.896;2023-05-16T11:23:22;10.58;;;7.87;;
30677;SDS011;17437;47.188;8.896;2023-05-16T11:25:56;12.18;;;9.80;;
30677;SDS011;17437;47.188;8.896;2023-05-16T11:28:29;12.90;;;9.55;;
30677;SDS011;17437;47.188;8.896;2023-05-16T11:31:01;10.28;;;9.00;;
30677;SDS011;17437;47.188;8.896;2023-05-16T11:33:34;11.28;;;9.90;;
30677;SDS011;17437;47.188;8.896;2023-05-16T11:36:07;10.28;;;9.20;;
30677;SDS011;17437;47.188;8.896;2023-05-16T11:38:41;12.30;;;10.23;;
30677;SDS011;17437;47.188;8.896;2023-05-16T11:41:13;12.80;;;10.53;;
30677;SDS011;17437;47.188;8.896;2023-05-16T11:43:45;11.97;;;10.20;;
30677;SDS011;17437;47.188;8.896;2023-05-16T11:46:17;13.70;;;10.35;;
30677;SDS011;17437;47.188;8.896;2023-05-16T11:48:49;12.33;;;9.70;;
30677;SDS011;17437;47.188;8.896;2023-05-16T11:51:21;13.60;;;8.85;;
30677;SDS011;17437;47.188;8.896;2023-05-16T11:53:52;8.88;;;7.15;;
30677;SDS011;17437;47.188;8.896;2023-05-16T11:56:24;8.78;;;6.20;;
30677;SDS011;17437;47.188;8.896;2023-05-16T11:58:59;9.73;;;6.97;;
30677;SDS011;17437;47.188;8.896;2023-05-16T12:01:34;7.80;;;6.22;;
30677;SDS011;17437;47.188;8.896;2023-05-16T12:04:07;25.15;;;14.58;;
30677;SDS011;17437;47.188;8.896;2023-05-16T12:06:41;19.87;;;13.40;;
30677;SDS011;17437;47.188;8.896;2023-05-16T12:09:13;11.80;;;8.78;;
30677;SDS011;17437;47.188;8.896;2023-05-16T12:11:46;8.23;;;6.60;;
30677;SDS011;17437;47.188;8.896;2023-05-16T12:14:19;11.08;;;6.72;;
30677;SDS011;17437;47.188;8.896;2023-05-16T12:16:51;9.00;;;8.10;;
30677;SDS011;17437;47.188;8.896;2023-05-16T12:19:23;9.05;;;7.67;;
30677;SDS011;17437;47.188;8.896;2023-05-16T12:21:56;9.73;;;8.35;;
30677;SDS011;17437;47.188;8.896;2023-05-16T12:24:30;8.80;;;7.90;;
30677;SDS011;17437;47.188;8.896;2023-05-16T12:27:02;10.13;;;7.25;;
30677;SDS011;17437;47.188;8.896;2023-05-16T12:29:33;9.18;;;7.50;;
30677;SDS011;17437;47.188;8.896;2023-05-16T12:32:06;9.05;;;7.03;;
30677;SDS011;17437;47.188;8.896;2023-05-16T12:34:38;7.70;;;6.60;;
30677;SDS011;17437;47.188;8.896;2023-05-16T12:37:11;8.63;;;7.67;;
30677;SDS011;17437;47.188;8.896;2023-05-16T12:39:43;10.32;;;8.18;;
30677;SDS011;17437;47.188;8.896;2023-05-16T12:42:16;9.10;;;8.13;;
30677;SDS011;17437;47.188;8.896;2023-05-16T12:44:50;8.53;;;7.72;;
30677;SDS011;17437;47.188;8.896;2023-05-16T12:47:34;9.23;;;7.78;;
30677;SDS011;17437;47.188;8.896;2023-05-16T12:50:08;8.08;;;7.22;;
30677;SDS011;17437;47.188;8.896;2023-05-16T12:52:49;10.05;;;7.17;;
30677;SDS011;17437;47.188;8.896;2023-05-16T12:55:22;10.35;;;7.95;;
30677;SDS011;17437;47.188;8.896;2023-05-16T12:57:54;8.53;;;7.30;;
30677;SDS011;17437;47.188;8.896;2023-05-16T13:00:26;11.30;;;10.10;;
30677;SDS011;17437;47.188;8.896;2023-05-16T13:02:59;10.93;;;8.48;;
30677;SDS011;17437;47.188;8.896;2023-05-16T13:05:31;9.03;;;8.13;;
30677;SDS011;17437;47.188;8.896;2023-05-16T13:08:03;11.70;;;9.98;;
30677;SDS011;17437;47.188;8.896;2023-05-16T13:10:35;11.68;;;10.30;;
30677;SDS011;17437;47.188;8.896;2023-05-16T13:13:07;16.00;;;12.28;;
30677;SDS011;17437;47.188;8.896;2023-05-16T13:15:41;12.78;;;11.03;;
30677;SDS011;17437;47.188;8.896;2023-05-16T13:18:13;17.42;;;12.50;;
30677;SDS011;17437;47.188;8.896;2023-05-16T13:20:45;16.12;;;13.88;;
30677;SDS011;17437;47.188;8.896;2023-05-16T13:23:17;18.80;;;14.33;;
30677;SDS011;17437;47.188;8.896;2023-05-16T13:25:49;18.40;;;14.63;;
30677;SDS011;17437;47.188;8.896;2023-05-16T13:28:21;21.20;;;14.98;;
30677;SDS011;17437;47.188;8.896;2023-05-16T13:30:52;19.92;;;17.27;;
30677;SDS011;17437;47.188;8.896;2023-05-16T13:33:26;20.77;;;16.23;;
30677;SDS011;17437;47.188;8.896;2023-05-16T13:35:57;19.75;;;14.90;;
30677;SDS011;17437;47.188;8.896;2023-05-16T13:38:29;21.62;;;16.17;;
30677;SDS011;17437;47.188;8.896;2023-05-16T13:41:01;17.12;;;14.70;;
30677;SDS011;17437;47.188;8.896;2023-05-16T13:43:32;22.82;;;17.42;;
30677;SDS011;17437;47.188;8.896;2023-05-16T13:46:04;22.65;;;17.00;;
30677;SDS011;17437;47.188;8.896;2023-05-16T13:48:35;22.37;;;16.77;;
30677;SDS011;17437;47.188;8.896;2023-05-16T13:51:07;20.27;;;14.87;;
30677;SDS011;17437;47.188;8.896;2023-05-16T13:53:39;23.70;;;17.40;;
30677;SDS011;17437;47.188;8.896;2023-05-16T13:56:11;22.17;;;18.02;;
30677;SDS011;17437;47.188;8.896;2023-05-16T13:58:42;22.13;;;17.17;;
30677;SDS011;17437;47.188;8.896;2023-05-16T14:01:15;25.77;;;18.60;;
30677;SDS011;17437;47.188;8.896;2023-05-16T14:03:47;23.18;;;17.73;;
30677;SDS011;17437;47.188;8.896;2023-05-16T14:06:19;24.67;;;19.32;;
30677;SDS011;17437;47.188;8.896;2023-05-16T14:08:50;29.90;;;19.35;;
30677;SDS011;17437;47.188;8.896;2023-05-16T14:11:22;22.67;;;17.77;;
30677;SDS011;17437;47.188;8.896;2023-05-16T14:13:56;23.02;;;17.95;;
30677;SDS011;17437;47.188;8.896;2023-05-16T14:16:28;26.35;;;18.73;;
30677;SDS011;17437;47.188;8.896;2023-05-16T14:19:01;21.70;;;16.93;;
30677;SDS011;17437;47.188;8.896;2023-05-16T14:21:33;22.95;;;17.80;;
30677;SDS011;17437;47.188;8.896;2023-05-16T14:24:06;26.30;;;18.70;;
30677;SDS011;17437;47.188;8.896;2023-05-16T14:26:37;24.27;;;17.55;;
30677;SDS011;17437;47.188;8.896;2023-05-16T14:29:09;23.60;;;17.12;;
30677;SDS011;17437;47.188;8.896;2023-05-16T14:31:41;24.95;;;20.00;;
30677;SDS011;17437;47.188;8.896;2023-05-16T14:34:12;24.72;;;18.75;;
30677;SDS011;17437;47.188;8.896;2023-05-16T14:36:44;25.88;;;18.42;;
30677;SDS011;17437;47.188;8.896;2023-05-16T14:39:16;25.90;;;18.75;;
30677;SDS011;17437;47.188;8.896;2023-05-16T14:41:47;23.12;;;18.15;;
30677;SDS011;17437;47.188;8.896;2023-05-16T14:44:19;22.00;;;16.62;;
30677;SDS011;17437;47.188;8.896;2023-05-16T14:46:52;21.93;;;15.23;;
30677;SDS011;17437;47.188;8.896;2023-05-16T14:49:24;20.35;;;15.85;;
30677;SDS011;17437;47.188;8.896;2023-05-16T14:51:55;23.67;;;16.95;;
30677;SDS011;17437;47.188;8.896;2023-05-16T14:54:27;23.57;;;15.38;;
30677;SDS011;17437;47.188;8.896;2023-05-16T14:56:59;20.92;;;15.43;;
30677;SDS011;17437;47.188;8.896;2023-05-16T14:59:32;19.40;;;15.23;;
30677;SDS011;17437;47.188;8.896;2023-05-16T15:02:03;19.25;;;15.45;;
30677;SDS011;17437;47.188;8.896;2023-05-16T15:04:36;20.43;;;15.98;;
30677;SDS011;17437;47.188;8.896;2023-05-16T15:07:08;21.33;;;17.37;;
30677;SDS011;17437;47.188;8.896;2023-05-16T15:09:39;23.02;;;16.48;;
30677;SDS011;17437;47.188;8.896;2023-05-16T15:12:11;20.48;;;15.68;;